sensor_id;sensor_type;location;lat;lon;timestamp;temperature;humidity
25652;DHT22;13508;50.734;4.232;2022-08-06T00:02:12;14.00;99.90
25652;DHT22;13508;50.734;4.232;2022-08-06T00:05:15;13.80;99.90
25652;DHT22;13508;50.734;4.232;2022-08-06T00:08:19;13.60;99.90
25652;DHT22;13508;50.734;4.232;2022-08-06T00:11:22;13.40;99.90
25652;DHT22;13508;50.734;4.232;2022-08-06T00:14:27;13.00;99.90
25652;DHT22;13508;50.734;4.232;2022-08-06T00:17:30;12.80;99.90
25652;DHT22;13508;50.734;4.232;2022-08-06T00:20:33;13.20;99.90
25652;DHT22;13508;50.734;4.232;2022-08-06T00:23:36;13.50;99.90
25652;DHT22;13508;50.734;4.232;2022-08-06T00:26:40;13.80;99.90
25652;DHT22;13508;50.734;4.232;2022-08-06T00:29:43;14.00;99.90
25652;DHT22;13508;50.734;4.232;2022-08-06T00:32:47;14.00;99.90
25652;DHT22;13508;50.734;4.232;2022-08-06T00:35:51;14.10;99.90
25652;DHT22;13508;50.734;4.232;2022-08-06T00:38:54;14.00;99.90
25652;DHT22;13508;50.734;4.232;2022-08-06T00:41:58;13.70;99.90
25652;DHT22;13508;50.734;4.232;2022-08-06T00:45:02;13.50;99.90
25652;DHT22;13508;50.734;4.232;2022-08-06T00:48:06;13.60;99.90
25652;DHT22;13508;50.734;4.232;2022-08-06T00:51:09;13.40;99.90
25652;DHT22;13508;50.734;4.232;2022-08-06T00:54:12;13.30;99.90
25652;DHT22;13508;50.734;4.232;2022-08-06T00:57:16;13.20;99.90
25652;DHT22;13508;50.734;4.232;2022-08-06T01:00:20;12.80;99.90
25652;DHT22;13508;50.734;4.232;2022-08-06T01:03:23;12.70;99.90
25652;DHT22;13508;50.734;4.232;2022-08-06T01:06:26;12.70;99.90
25652;DHT22;13508;50.734;4.232;2022-08-06T01:09:30;12.80;99.90
25652;DHT22;13508;50.734;4.232;2022-08-06T01:12:33;12.80;99.90
25652;DHT22;13508;50.734;4.232;2022-08-06T01:15:39;12.70;99.90
25652;DHT22;13508;50.734;4.232;2022-08-06T01:26:32;13.10;99.90
25652;DHT22;13508;50.734;4.232;2022-08-06T01:29:39;13.20;99.90
25652;DHT22;13508;50.734;4.232;2022-08-06T01:33:06;13.10;99.90
25652;DHT22;13508;50.734;4.232;2022-08-06T01:36:18;12.80;99.90
25652;DHT22;13508;50.734;4.232;2022-08-06T01:39:24;12.60;99.90
25652;DHT22;13508;50.734;4.232;2022-08-06T01:42:31;12.50;99.90
25652;DHT22;13508;50.734;4.232;2022-08-06T01:51:24;12.90;99.90
25652;DHT22;13508;50.734;4.232;2022-08-06T01:54:34;13.10;99.90
25652;DHT22;13508;50.734;4.232;2022-08-06T01:57:43;13.10;99.90
25652;DHT22;13508;50.734;4.232;2022-08-06T02:00:53;12.90;99.90
25652;DHT22;13508;50.734;4.232;2022-08-06T02:08:01;13.10;99.90
25652;DHT22;13508;50.734;4.232;2022-08-06T02:11:19;12.80;99.90
25652;DHT22;13508;50.734;4.232;2022-08-06T02:23:05;12.80;99.90
25652;DHT22;13508;50.734;4.232;2022-08-06T02:27:06;12.70;99.90
25652;DHT22;13508;50.734;4.232;2022-08-06T02:30:40;12.60;99.90
25652;DHT22;13508;50.734;4.232;2022-08-06T02:33:54;12.30;99.90
25652;DHT22;13508;50.734;4.232;2022-08-06T02:37:03;12.10;99.90
25652;DHT22;13508;50.734;4.232;2022-08-06T02:40:27;11.70;99.90
25652;DHT22;13508;50.734;4.232;2022-08-06T02:43:39;11.60;99.90
25652;DHT22;13508;50.734;4.232;2022-08-06T02:46:58;12.00;99.90
25652;DHT22;13508;50.734;4.232;2022-08-06T02:50:05;12.30;99.90
25652;DHT22;13508;50.734;4.232;2022-08-06T02:53:13;12.50;99.90
25652;DHT22;13508;50.734;4.232;2022-08-06T02:56:18;12.60;99.90
25652;DHT22;13508;50.734;4.232;2022-08-06T02:59:27;12.70;99.90
25652;DHT22;13508;50.734;4.232;2022-08-06T03:02:34;12.80;99.90
25652;DHT22;13508;50.734;4.232;2022-08-06T03:05:42;12.70;99.90
25652;DHT22;13508;50.734;4.232;2022-08-06T03:08:47;12.70;99.90
25652;DHT22;13508;50.734;4.232;2022-08-06T03:11:54;12.70;99.90
25652;DHT22;13508;50.734;4.232;2022-08-06T03:15:04;12.50;99.90
25652;DHT22;13508;50.734;4.232;2022-08-06T03:18:09;12.70;99.90
25652;DHT22;13508;50.734;4.232;2022-08-06T03:21:12;12.70;99.90
25652;DHT22;13508;50.734;4.232;2022-08-06T03:24:17;12.60;99.90
25652;DHT22;13508;50.734;4.232;2022-08-06T03:27:21;12.80;99.90
25652;DHT22;13508;50.734;4.232;2022-08-06T03:30:26;12.90;99.90
25652;DHT22;13508;50.734;4.232;2022-08-06T03:33:30;12.80;99.90
25652;DHT22;13508;50.734;4.232;2022-08-06T03:36:35;12.70;99.90
25652;DHT22;13508;50.734;4.232;2022-08-06T03:39:41;12.60;99.90
25652;DHT22;13508;50.734;4.232;2022-08-06T03:42:46;12.20;99.90
25652;DHT22;13508;50.734;4.232;2022-08-06T03:45:58;11.90;99.90
25652;DHT22;13508;50.734;4.232;2022-08-06T03:49:07;11.80;99.90
25652;DHT22;13508;50.734;4.232;2022-08-06T03:52:15;11.60;99.90
25652;DHT22;13508;50.734;4.232;2022-08-06T03:55:23;11.60;99.90
25652;DHT22;13508;50.734;4.232;2022-08-06T03:58:31;11.80;99.90
25652;DHT22;13508;50.734;4.232;2022-08-06T04:01:38;11.70;99.90
25652;DHT22;13508;50.734;4.232;2022-08-06T04:04:45;11.50;99.90
25652;DHT22;13508;50.734;4.232;2022-08-06T04:08:00;11.40;99.90
25652;DHT22;13508;50.734;4.232;2022-08-06T04:11:07;11.90;99.90
25652;DHT22;13508;50.734;4.232;2022-08-06T04:14:12;11.90;99.90
25652;DHT22;13508;50.734;4.232;2022-08-06T04:17:16;12.00;99.90
25652;DHT22;13508;50.734;4.232;2022-08-06T04:20:21;12.10;99.90
25652;DHT22;13508;50.734;4.232;2022-08-06T04:23:26;12.20;99.90
25652;DHT22;13508;50.734;4.232;2022-08-06T04:26:30;12.40;99.90
25652;DHT22;13508;50.734;4.232;2022-08-06T04:29:39;12.40;99.90
25652;DHT22;13508;50.734;4.232;2022-08-06T04:32:44;12.60;99.90
25652;DHT22;13508;50.734;4.232;2022-08-06T04:35:48;12.40;99.90
25652;DHT22;13508;50.734;4.232;2022-08-06T04:38:52;12.40;99.90
25652;DHT22;13508;50.734;4.232;2022-08-06T04:41:56;12.00;99.90
25652;DHT22;13508;50.734;4.232;2022-08-06T04:45:00;11.50;99.90
25652;DHT22;13508;50.734;4.232;2022-08-06T04:48:06;11.30;99.90
25652;DHT22;13508;50.734;4.232;2022-08-06T04:51:11;11.10;99.90
25652;DHT22;13508;50.734;4.232;2022-08-06T04:54:15;11.00;99.90
25652;DHT22;13508;50.734;4.232;2022-08-06T04:57:19;11.30;99.90
25652;DHT22;13508;50.734;4.232;2022-08-06T05:00:22;11.70;99.90
25652;DHT22;13508;50.734;4.232;2022-08-06T05:03:26;12.00;99.90
25652;DHT22;13508;50.734;4.232;2022-08-06T05:06:49;12.00;99.90
25652;DHT22;13508;50.734;4.232;2022-08-06T05:18:39;12.50;99.90
25652;DHT22;13508;50.734;4.232;2022-08-06T05:22:08;12.80;99.90
25652;DHT22;13508;50.734;4.232;2022-08-06T05:25:14;12.80;99.90
25652;DHT22;13508;50.734;4.232;2022-08-06T05:32:16;12.20;99.90
25652;DHT22;13508;50.734;4.232;2022-08-06T05:35:20;12.10;99.90
25652;DHT22;13508;50.734;4.232;2022-08-06T05:38:23;12.30;99.90
25652;DHT22;13508;50.734;4.232;2022-08-06T05:41:29;12.70;99.90
25652;DHT22;13508;50.734;4.232;2022-08-06T05:44:33;13.00;99.90
25652;DHT22;13508;50.734;4.232;2022-08-06T05:47:38;13.30;99.90
25652;DHT22;13508;50.734;4.232;2022-08-06T05:50:59;13.60;99.90
25652;DHT22;13508;50.734;4.232;2022-08-06T05:54:29;13.90;99.90
25652;DHT22;13508;50.734;4.232;2022-08-06T05:57:48;13.80;99.90
25652;DHT22;13508;50.734;4.232;2022-08-06T06:01:03;13.90;99.90
25652;DHT22;13508;50.734;4.232;2022-08-06T06:04:12;14.30;99.90
25652;DHT22;13508;50.734;4.232;2022-08-06T06:07:17;14.30;99.90
25652;DHT22;13508;50.734;4.232;2022-08-06T06:10:23;14.20;99.90
25652;DHT22;13508;50.734;4.232;2022-08-06T06:13:28;15.10;99.90
25652;DHT22;13508;50.734;4.232;2022-08-06T06:23:17;17.40;99.90
25652;DHT22;13508;50.734;4.232;2022-08-06T06:26:37;18.80;99.90
25652;DHT22;13508;50.734;4.232;2022-08-06T06:30:00;18.60;99.90
25652;DHT22;13508;50.734;4.232;2022-08-06T06:36:44;19.90;99.90
25652;DHT22;13508;50.734;4.232;2022-08-06T06:40:08;19.70;99.90
25652;DHT22;13508;50.734;4.232;2022-08-06T06:43:27;19.10;99.90
25652;DHT22;13508;50.734;4.232;2022-08-06T06:46:39;19.60;99.90
25652;DHT22;13508;50.734;4.232;2022-08-06T06:49:46;19.60;99.90
25652;DHT22;13508;50.734;4.232;2022-08-06T06:52:51;19.80;99.90
25652;DHT22;13508;50.734;4.232;2022-08-06T06:55:57;19.80;99.90
25652;DHT22;13508;50.734;4.232;2022-08-06T06:59:06;19.30;99.90
25652;DHT22;13508;50.734;4.232;2022-08-06T07:02:18;19.50;99.90
25652;DHT22;13508;50.734;4.232;2022-08-06T07:05:22;19.20;99.90
25652;DHT22;13508;50.734;4.232;2022-08-06T07:08:28;19.90;99.90
25652;DHT22;13508;50.734;4.232;2022-08-06T07:11:32;20.50;99.90
25652;DHT22;13508;50.734;4.232;2022-08-06T07:14:36;21.70;99.90
25652;DHT22;13508;50.734;4.232;2022-08-06T07:17:41;21.80;99.90
25652;DHT22;13508;50.734;4.232;2022-08-06T07:20:45;22.00;99.90
25652;DHT22;13508;50.734;4.232;2022-08-06T07:23:50;23.30;99.50
25652;DHT22;13508;50.734;4.232;2022-08-06T07:26:57;23.70;98.50
25652;DHT22;13508;50.734;4.232;2022-08-06T07:30:03;24.20;96.40
25652;DHT22;13508;50.734;4.232;2022-08-06T07:33:08;24.00;96.70
25652;DHT22;13508;50.734;4.232;2022-08-06T07:36:16;23.10;97.50
25652;DHT22;13508;50.734;4.232;2022-08-06T07:39:31;23.80;97.20
25652;DHT22;13508;50.734;4.232;2022-08-06T07:42:37;25.50;94.70
25652;DHT22;13508;50.734;4.232;2022-08-06T07:45:43;24.80;93.50
25652;DHT22;13508;50.734;4.232;2022-08-06T07:49:00;24.20;94.70
25652;DHT22;13508;50.734;4.232;2022-08-06T07:52:05;23.40;95.50
25652;DHT22;13508;50.734;4.232;2022-08-06T07:55:12;23.10;96.70
25652;DHT22;13508;50.734;4.232;2022-08-06T07:58:16;23.00;97.30
25652;DHT22;13508;50.734;4.232;2022-08-06T08:01:20;22.40;98.20
25652;DHT22;13508;50.734;4.232;2022-08-06T08:04:25;23.10;97.20
25652;DHT22;13508;50.734;4.232;2022-08-06T08:07:47;24.30;95.00
25652;DHT22;13508;50.734;4.232;2022-08-06T08:10:54;26.20;91.80
25652;DHT22;13508;50.734;4.232;2022-08-06T08:13:58;27.30;88.10
25652;DHT22;13508;50.734;4.232;2022-08-06T08:17:02;28.00;83.60
25652;DHT22;13508;50.734;4.232;2022-08-06T08:20:07;27.40;84.00
25652;DHT22;13508;50.734;4.232;2022-08-06T08:23:12;27.50;82.80
25652;DHT22;13508;50.734;4.232;2022-08-06T08:26:16;27.60;83.10
25652;DHT22;13508;50.734;4.232;2022-08-06T08:29:19;28.40;79.00
25652;DHT22;13508;50.734;4.232;2022-08-06T08:32:22;28.10;79.50
25652;DHT22;13508;50.734;4.232;2022-08-06T08:35:26;27.70;79.40
25652;DHT22;13508;50.734;4.232;2022-08-06T08:38:32;27.30;80.70
25652;DHT22;13508;50.734;4.232;2022-08-06T08:41:49;28.20;77.80
25652;DHT22;13508;50.734;4.232;2022-08-06T08:44:54;28.00;77.10
25652;DHT22;13508;50.734;4.232;2022-08-06T08:47:59;29.60;73.40
25652;DHT22;13508;50.734;4.232;2022-08-06T08:51:04;30.70;70.70
25652;DHT22;13508;50.734;4.232;2022-08-06T08:54:10;31.50;66.70
25652;DHT22;13508;50.734;4.232;2022-08-06T08:57:16;32.20;62.90
25652;DHT22;13508;50.734;4.232;2022-08-06T09:00:19;33.00;61.10
25652;DHT22;13508;50.734;4.232;2022-08-06T09:03:23;34.70;56.00
25652;DHT22;13508;50.734;4.232;2022-08-06T09:06:27;32.50;55.60
25652;DHT22;13508;50.734;4.232;2022-08-06T09:09:32;31.60;57.50
25652;DHT22;13508;50.734;4.232;2022-08-06T09:12:38;33.30;54.40
25652;DHT22;13508;50.734;4.232;2022-08-06T09:15:42;34.10;52.40
25652;DHT22;13508;50.734;4.232;2022-08-06T09:18:46;34.90;50.90
25652;DHT22;13508;50.734;4.232;2022-08-06T09:21:49;34.20;49.60
25652;DHT22;13508;50.734;4.232;2022-08-06T09:24:52;32.50;52.10
25652;DHT22;13508;50.734;4.232;2022-08-06T09:27:56;31.10;53.90
25652;DHT22;13508;50.734;4.232;2022-08-06T09:34:08;32.70;52.20
25652;DHT22;13508;50.734;4.232;2022-08-06T09:37:11;32.20;50.20
25652;DHT22;13508;50.734;4.232;2022-08-06T09:40:32;31.30;51.50
25652;DHT22;13508;50.734;4.232;2022-08-06T09:43:37;32.20;50.90
25652;DHT22;13508;50.734;4.232;2022-08-06T09:46:46;31.80;51.40
25652;DHT22;13508;50.734;4.232;2022-08-06T09:49:49;31.70;51.00
25652;DHT22;13508;50.734;4.232;2022-08-06T09:53:02;32.00;50.80
25652;DHT22;13508;50.734;4.232;2022-08-06T09:56:15;33.50;48.50
25652;DHT22;13508;50.734;4.232;2022-08-06T09:59:20;34.40;46.40
25652;DHT22;13508;50.734;4.232;2022-08-06T10:02:24;33.80;47.00
25652;DHT22;13508;50.734;4.232;2022-08-06T10:09:29;34.20;45.90
25652;DHT22;13508;50.734;4.232;2022-08-06T10:12:33;34.20;46.30
25652;DHT22;13508;50.734;4.232;2022-08-06T10:15:40;32.20;48.20
25652;DHT22;13508;50.734;4.232;2022-08-06T10:18:48;31.20;50.00
25652;DHT22;13508;50.734;4.232;2022-08-06T10:21:53;31.80;49.70
25652;DHT22;13508;50.734;4.232;2022-08-06T10:24:59;33.60;47.20
25652;DHT22;13508;50.734;4.232;2022-08-06T10:28:05;35.50;44.90
25652;DHT22;13508;50.734;4.232;2022-08-06T10:31:12;34.50;46.70
25652;DHT22;13508;50.734;4.232;2022-08-06T10:34:26;35.10;44.00
25652;DHT22;13508;50.734;4.232;2022-08-06T10:37:33;34.10;45.00
25652;DHT22;13508;50.734;4.232;2022-08-06T10:40:38;34.70;44.70
25652;DHT22;13508;50.734;4.232;2022-08-06T10:43:42;34.40;44.90
25652;DHT22;13508;50.734;4.232;2022-08-06T10:46:45;33.80;45.30
25652;DHT22;13508;50.734;4.232;2022-08-06T10:49:49;33.80;45.70
25652;DHT22;13508;50.734;4.232;2022-08-06T10:52:55;34.00;45.10
25652;DHT22;13508;50.734;4.232;2022-08-06T10:56:05;34.20;44.90
25652;DHT22;13508;50.734;4.232;2022-08-06T10:59:12;33.10;46.30
25652;DHT22;13508;50.734;4.232;2022-08-06T11:02:36;33.30;45.90
25652;DHT22;13508;50.734;4.232;2022-08-06T11:05:40;33.10;46.70
25652;DHT22;13508;50.734;4.232;2022-08-06T11:15:40;31.70;48.20
25652;DHT22;13508;50.734;4.232;2022-08-06T11:19:07;31.60;48.40
25652;DHT22;13508;50.734;4.232;2022-08-06T11:25:47;31.00;48.80
25652;DHT22;13508;50.734;4.232;2022-08-06T11:28:56;31.60;47.40
25652;DHT22;13508;50.734;4.232;2022-08-06T11:32:00;32.30;45.10
25652;DHT22;13508;50.734;4.232;2022-08-06T11:45:08;34.40;41.90
25652;DHT22;13508;50.734;4.232;2022-08-06T11:48:11;35.40;40.90
25652;DHT22;13508;50.734;4.232;2022-08-06T11:51:36;38.20;38.30
25652;DHT22;13508;50.734;4.232;2022-08-06T11:59:11;38.20;35.90
25652;DHT22;13508;50.734;4.232;2022-08-06T12:05:45;32.60;43.30
25652;DHT22;13508;50.734;4.232;2022-08-06T12:09:10;35.10;40.20
25652;DHT22;13508;50.734;4.232;2022-08-06T20:31:04;19.80;81.70
25652;DHT22;13508;50.734;4.232;2022-08-06T20:34:08;19.80;82.10
25652;DHT22;13508;50.734;4.232;2022-08-06T20:37:11;19.70;81.80
25652;DHT22;13508;50.734;4.232;2022-08-06T20:40:15;19.70;82.80
25652;DHT22;13508;50.734;4.232;2022-08-06T20:43:20;19.70;82.50
25652;DHT22;13508;50.734;4.232;2022-08-06T20:46:23;19.80;82.20
25652;DHT22;13508;50.734;4.232;2022-08-06T20:49:26;19.70;82.90
25652;DHT22;13508;50.734;4.232;2022-08-06T20:52:30;19.60;83.40
25652;DHT22;13508;50.734;4.232;2022-08-06T20:55:33;19.50;83.50
25652;DHT22;13508;50.734;4.232;2022-08-06T20:58:39;19.50;84.30
25652;DHT22;13508;50.734;4.232;2022-08-06T21:01:42;19.30;84.70
25652;DHT22;13508;50.734;4.232;2022-08-06T21:04:45;19.20;85.70
25652;DHT22;13508;50.734;4.232;2022-08-06T21:07:51;19.10;86.40
25652;DHT22;13508;50.734;4.232;2022-08-06T21:10:56;19.00;87.40
25652;DHT22;13508;50.734;4.232;2022-08-06T21:14:00;19.00;87.50
25652;DHT22;13508;50.734;4.232;2022-08-06T21:17:03;18.80;88.60
25652;DHT22;13508;50.734;4.232;2022-08-06T21:20:07;18.80;89.00
25652;DHT22;13508;50.734;4.232;2022-08-06T21:23:10;18.80;89.30
25652;DHT22;13508;50.734;4.232;2022-08-06T21:26:14;18.70;90.00
25652;DHT22;13508;50.734;4.232;2022-08-06T21:29:17;18.70;89.80
25652;DHT22;13508;50.734;4.232;2022-08-06T21:32:20;18.70;90.10
25652;DHT22;13508;50.734;4.232;2022-08-06T21:35:23;18.70;90.30
25652;DHT22;13508;50.734;4.232;2022-08-06T21:38:26;18.60;90.60
25652;DHT22;13508;50.734;4.232;2022-08-06T21:41:29;18.60;90.90
25652;DHT22;13508;50.734;4.232;2022-08-06T21:44:33;18.50;90.90
25652;DHT22;13508;50.734;4.232;2022-08-06T21:47:37;18.40;91.30
25652;DHT22;13508;50.734;4.232;2022-08-06T21:50:40;18.40;91.70
25652;DHT22;13508;50.734;4.232;2022-08-06T21:53:44;18.50;91.60
25652;DHT22;13508;50.734;4.232;2022-08-06T21:56:47;18.50;91.70
25652;DHT22;13508;50.734;4.232;2022-08-06T21:59:50;18.50;91.80
25652;DHT22;13508;50.734;4.232;2022-08-06T22:02:53;18.40;92.20
25652;DHT22;13508;50.734;4.232;2022-08-06T22:05:57;18.30;92.40
25652;DHT22;13508;50.734;4.232;2022-08-06T22:09:00;18.30;92.60
25652;DHT22;13508;50.734;4.232;2022-08-06T22:12:03;18.30;92.80
25652;DHT22;13508;50.734;4.232;2022-08-06T22:15:07;18.40;92.90
25652;DHT22;13508;50.734;4.232;2022-08-06T22:18:10;18.40;93.10
25652;DHT22;13508;50.734;4.232;2022-08-06T22:21:13;18.30;93.60
25652;DHT22;13508;50.734;4.232;2022-08-06T22:24:20;18.20;93.70
25652;DHT22;13508;50.734;4.232;2022-08-06T22:27:24;18.20;93.80
25652;DHT22;13508;50.734;4.232;2022-08-06T22:30:27;18.20;94.20
25652;DHT22;13508;50.734;4.232;2022-08-06T22:33:37;18.20;94.30
25652;DHT22;13508;50.734;4.232;2022-08-06T22:36:41;18.10;94.50
25652;DHT22;13508;50.734;4.232;2022-08-06T22:39:45;18.10;94.90
25652;DHT22;13508;50.734;4.232;2022-08-06T22:42:48;18.10;95.10
25652;DHT22;13508;50.734;4.232;2022-08-06T22:45:52;18.00;95.30
25652;DHT22;13508;50.734;4.232;2022-08-06T22:48:55;18.00;95.50
25652;DHT22;13508;50.734;4.232;2022-08-06T22:51:58;18.10;95.60
25652;DHT22;13508;50.734;4.232;2022-08-06T22:55:02;18.00;95.90
25652;DHT22;13508;50.734;4.232;2022-08-06T22:58:06;18.00;96.30
25652;DHT22;13508;50.734;4.232;2022-08-06T23:01:10;17.90;96.50
25652;DHT22;13508;50.734;4.232;2022-08-06T23:04:13;17.90;96.80
25652;DHT22;13508;50.734;4.232;2022-08-06T23:07:16;17.90;97.00
25652;DHT22;13508;50.734;4.232;2022-08-06T23:10:20;17.80;97.30
25652;DHT22;13508;50.734;4.232;2022-08-06T23:13:23;17.80;97.70
25652;DHT22;13508;50.734;4.232;2022-08-06T23:16:27;17.80;97.90
25652;DHT22;13508;50.734;4.232;2022-08-06T23:19:30;17.80;98.10
25652;DHT22;13508;50.734;4.232;2022-08-06T23:22:33;17.70;98.80
25652;DHT22;13508;50.734;4.232;2022-08-06T23:25:36;17.70;99.10
25652;DHT22;13508;50.734;4.232;2022-08-06T23:28:39;17.50;99.80
25652;DHT22;13508;50.734;4.232;2022-08-06T23:31:42;17.40;99.90
25652;DHT22;13508;50.734;4.232;2022-08-06T23:34:46;17.30;99.90
25652;DHT22;13508;50.734;4.232;2022-08-06T23:37:50;17.30;99.90
25652;DHT22;13508;50.734;4.232;2022-08-06T23:40:54;17.30;99.90
25652;DHT22;13508;50.734;4.232;2022-08-06T23:44:00;17.30;99.90
25652;DHT22;13508;50.734;4.232;2022-08-06T23:47:03;17.30;99.90
25652;DHT22;13508;50.734;4.232;2022-08-06T23:50:08;17.50;99.90
25652;DHT22;13508;50.734;4.232;2022-08-06T23:53:12;17.50;99.90
25652;DHT22;13508;50.734;4.232;2022-08-06T23:56:15;17.40;99.90
25652;DHT22;13508;50.734;4.232;2022-08-06T23:59:19;17.40;99.90
